Time;durP1;ratioP1;P1;durP2;ratioP2;P2;SDS_P1;SDS_P2;PMS_P1;PMS_P2;Temp;Humidity;BMP_temperature;BMP_pressure;BME280_temperature;BME280_humidity;BME280_pressure;Samples;Min_cycle;Max_cycle;Signal;HPM_P1;HPM_P2
2023/09/26 00:02:22;;;;;;;;;;;10.80;99.90;;;;;;7602975;19;19918;-74
2023/09/26 00:04:57;;;;;;;;;;;10.70;99.90;;;;;;7607318;19;19915;-74
2023/09/26 00:07:30;;;;;;;;;;;10.70;99.90;;;;;;7608151;19;19919;-74
2023/09/26 00:10:03;;;;;;;;;;;10.70;99.90;;;;;;7604062;19;20503;-73
2023/09/26 00:12:35;;;;;;;;;;;10.70;99.90;;;;;;7606687;19;20019;-74
2023/09/26 00:15:07;;;;;;;;;;;10.60;99.90;;;;;;7601959;19;19923;-73
2023/09/26 00:17:40;;;;;;;;;;;10.50;99.90;;;;;;7606627;19;19914;-73
2023/09/26 00:20:18;;;;;;;;;;;10.50;99.90;;;;;;7605893;19;19989;-72
2023/09/26 00:22:51;;;;;;;;;;;10.50;99.90;;;;;;7605518;19;19929;-75
2023/09/26 00:25:23;;;;;;;;;;;10.40;99.90;;;;;;7586692;19;20531;-72
2023/09/26 00:27:57;;;;;;;;;;;10.40;99.90;;;;;;7603537;19;19923;-74
2023/09/26 00:30:29;;;;;;;;;;;10.40;99.90;;;;;;7598615;19;19950;-74
2023/09/26 00:33:01;;;;;;;;;;;10.30;99.90;;;;;;7600082;19;19915;-72
2023/09/26 00:35:34;;;;;;;;;;;10.30;99.90;;;;;;7605345;19;19919;-74
2023/09/26 00:38:07;;;;;;;;;;;10.10;99.90;;;;;;7598664;19;19963;-73
2023/09/26 00:40:40;;;;;;;;;;;10.10;99.90;;;;;;7598442;19;20503;-73
2023/09/26 00:43:22;;;;;;;;;;;10.00;99.90;;;;;;7594383;19;19923;-73
2023/09/26 00:45:55;;;;;;;;;;;10.10;99.90;;;;;;7603127;19;19939;-73
2023/09/26 00:48:28;;;;;;;;;;;10.10;99.90;;;;;;7598620;19;20421;-73
2023/09/26 00:51:00;;;;;;;;;;;9.90;99.90;;;;;;7602234;19;19948;-73
2023/09/26 00:53:35;;;;;;;;;;;10.20;99.90;;;;;;7598714;19;19930;-73
2023/09/26 00:56:07;;;;;;;;;;;10.20;99.90;;;;;;7592808;19;20359;-71
2023/09/26 00:58:40;;;;;;;;;;;10.20;99.90;;;;;;7611316;19;20585;-73
2023/09/26 01:01:12;;;;;;;;;;;10.00;99.90;;;;;;7607984;19;19956;-74
2023/09/26 01:03:46;;;;;;;;;;;10.00;99.90;;;;;;7613166;19;19927;-72
2023/09/26 01:06:20;;;;;;;;;;;10.00;99.90;;;;;;7605007;19;20320;-73
2023/09/26 01:08:52;;;;;;;;;;;10.00;99.90;;;;;;7608248;19;20138;-71
2023/09/26 01:11:25;;;;;;;;;;;10.00;99.90;;;;;;7603680;19;19930;-72
2023/09/26 01:13:57;;;;;;;;;;;10.00;99.90;;;;;;7607235;19;19956;-75
2023/09/26 01:16:30;;;;;;;;;;;9.90;99.90;;;;;;7603468;19;19926;-72
2023/09/26 01:19:02;;;;;;;;;;;9.90;99.90;;;;;;7610178;19;20579;-71
2023/09/26 01:21:36;;;;;;;;;;;9.90;99.90;;;;;;7607758;19;19930;-73
2023/09/26 01:24:08;;;;;;;;;;;10.00;99.90;;;;;;7602737;19;19967;-73
2023/09/26 01:26:41;;;;;;;;;;;10.00;99.90;;;;;;7605260;19;19938;-73
2023/09/26 01:29:15;;;;;;;;;;;9.90;99.90;;;;;;7604939;19;20693;-75
2023/09/26 01:31:48;;;;;;;;;;;10.00;99.90;;;;;;7602754;19;20459;-75
2023/09/26 01:34:20;;;;;;;;;;;9.90;99.90;;;;;;7606197;19;20363;-74
2023/09/26 01:36:52;;;;;;;;;;;10.20;99.90;;;;;;7611894;19;19936;-74
2023/09/26 01:39:24;;;;;;;;;;;9.90;99.90;;;;;;7604387;19;19926;-72
2023/09/26 01:41:56;;;;;;;;;;;9.90;99.90;;;;;;7596482;19;19914;-74
2023/09/26 01:44:29;;;;;;;;;;;9.90;99.90;;;;;;7604328;19;19926;-74
2023/09/26 01:47:01;;;;;;;;;;;9.90;99.90;;;;;;7601669;19;20329;-75
2023/09/26 01:49:34;;;;;;;;;;;9.80;99.90;;;;;;7608071;19;20006;-73
2023/09/26 01:52:06;;;;;;;;;;;9.80;99.90;;;;;;7615681;19;19926;-74
2023/09/26 01:54:38;;;;;;;;;;;9.80;99.90;;;;;;7610137;19;20315;-73
2023/09/26 01:57:13;;;;;;;;;;;9.80;99.90;;;;;;7591003;19;19922;-75
2023/09/26 01:59:46;;;;;;;;;;;9.80;99.90;;;;;;7605192;19;19930;-75
2023/09/26 02:02:18;;;;;;;;;;;9.80;99.90;;;;;;7603603;19;20930;-70
2023/09/26 02:04:50;;;;;;;;;;;9.70;99.90;;;;;;7602812;19;19982;-74
2023/09/26 02:07:22;;;;;;;;;;;9.80;99.90;;;;;;7599405;19;19918;-74
2023/09/26 02:09:54;;;;;;;;;;;9.70;99.90;;;;;;7604832;19;19937;-72
2023/09/26 02:12:26;;;;;;;;;;;9.70;99.90;;;;;;7605983;19;19953;-74
2023/09/26 02:15:01;;;;;;;;;;;9.70;99.90;;;;;;7602733;19;19923;-74
2023/09/26 02:17:36;;;;;;;;;;;9.70;99.90;;;;;;7602471;19;20672;-73
2023/09/26 02:20:12;;;;;;;;;;;9.60;99.90;;;;;;7608267;19;19922;-74
2023/09/26 02:22:49;;;;;;;;;;;9.70;99.90;;;;;;7607134;19;20021;-73
2023/09/26 02:25:23;;;;;;;;;;;9.70;99.90;;;;;;7601566;19;20383;-75
2023/09/26 02:27:57;;;;;;;;;;;9.70;99.90;;;;;;7611385;19;19934;-74
2023/09/26 02:30:29;;;;;;;;;;;9.70;99.90;;;;;;7601680;19;20822;-75
2023/09/26 02:33:01;;;;;;;;;;;9.70;99.90;;;;;;7607869;19;19914;-74
2023/09/26 02:35:34;;;;;;;;;;;9.70;99.90;;;;;;7606298;19;19926;-74
2023/09/26 02:38:08;;;;;;;;;;;9.70;99.90;;;;;;7608932;19;20438;-74
2023/09/26 02:40:41;;;;;;;;;;;9.60;99.90;;;;;;7603359;19;19922;-75
2023/09/26 02:43:13;;;;;;;;;;;9.50;99.90;;;;;;7593038;19;19998;-72
2023/09/26 02:45:45;;;;;;;;;;;9.40;99.90;;;;;;7595862;19;19934;-74
2023/09/26 02:48:18;;;;;;;;;;;9.40;99.90;;;;;;7581228;19;19919;-75
2023/09/26 02:50:50;;;;;;;;;;;9.50;99.90;;;;;;7593356;19;20292;-74
2023/09/26 02:53:22;;;;;;;;;;;9.50;99.90;;;;;;7594196;19;19922;-76
2023/09/26 02:55:54;;;;;;;;;;;9.40;99.90;;;;;;7582941;19;19922;-74
2023/09/26 02:58:26;;;;;;;;;;;9.40;99.90;;;;;;7594244;19;20000;-74
2023/09/26 03:01:00;;;;;;;;;;;9.40;99.90;;;;;;7597158;19;20319;-75
2023/09/26 03:03:33;;;;;;;;;;;9.50;99.90;;;;;;7601409;19;20261;-73
2023/09/26 03:06:06;;;;;;;;;;;9.50;99.90;;;;;;7600668;19;20396;-75
2023/09/26 03:09:15;;;;;;;;;;;9.50;99.90;;;;;;7584933;19;19921;-75
2023/09/26 03:11:47;;;;;;;;;;;9.40;99.90;;;;;;7582729;19;19918;-74
2023/09/26 03:14:20;;;;;;;;;;;9.60;99.90;;;;;;7599642;19;19938;-74
2023/09/26 03:16:52;;;;;;;;;;;9.60;99.90;;;;;;7600233;19;19930;-74
2023/09/26 03:19:25;;;;;;;;;;;9.50;99.90;;;;;;7603402;19;19942;-73
2023/09/26 03:21:57;;;;;;;;;;;9.50;99.90;;;;;;7589504;19;19942;-74
2023/09/26 03:24:30;;;;;;;;;;;9.50;99.90;;;;;;7588402;19;20035;-74
2023/09/26 03:27:02;;;;;;;;;;;9.40;99.90;;;;;;7596585;19;19922;-74
2023/09/26 03:29:34;;;;;;;;;;;9.40;99.90;;;;;;7593032;19;19930;-74
2023/09/26 03:32:08;;;;;;;;;;;9.60;99.90;;;;;;7601387;19;19926;-74
2023/09/26 03:34:40;;;;;;;;;;;9.60;99.90;;;;;;7599257;19;19927;-75
2023/09/26 03:37:13;;;;;;;;;;;9.60;99.90;;;;;;7590413;19;20090;-73
2023/09/26 03:39:48;;;;;;;;;;;9.60;99.90;;;;;;7595973;19;20564;-75
2023/09/26 03:42:21;;;;;;;;;;;9.50;99.90;;;;;;7596180;19;19998;-74
2023/09/26 03:44:53;;;;;;;;;;;9.50;99.90;;;;;;7598416;19;19919;-75
2023/09/26 03:47:25;;;;;;;;;;;9.40;99.90;;;;;;7602706;19;19918;-75
2023/09/26 03:49:57;;;;;;;;;;;9.40;99.90;;;;;;7604890;19;19938;-74
2023/09/26 03:52:29;;;;;;;;;;;9.40;99.90;;;;;;7604925;19;19926;-74
2023/09/26 03:55:02;;;;;;;;;;;9.30;99.90;;;;;;7599321;19;19910;-73
2023/09/26 03:57:35;;;;;;;;;;;9.30;99.90;;;;;;7603825;19;19922;-74
2023/09/26 04:00:13;;;;;;;;;;;9.40;99.90;;;;;;7603625;19;19939;-74
2023/09/26 04:02:45;;;;;;;;;;;9.30;99.90;;;;;;7600828;19;19914;-75
2023/09/26 04:05:17;;;;;;;;;;;9.20;99.90;;;;;;7595310;19;19924;-74
2023/09/26 04:07:49;;;;;;;;;;;9.10;99.90;;;;;;7604289;19;19927;-74
2023/09/26 04:10:22;;;;;;;;;;;9.10;99.90;;;;;;7594414;19;19927;-74
2023/09/26 04:12:54;;;;;;;;;;;10.20;99.90;;;;;;7604262;19;19922;-73
2023/09/26 04:15:26;;;;;;;;;;;9.20;99.90;;;;;;7598908;19;19934;-73
2023/09/26 04:17:58;;;;;;;;;;;9.30;99.90;;;;;;7602990;19;19930;-73
2023/09/26 04:20:30;;;;;;;;;;;9.30;99.90;;;;;;7596399;19;19946;-74
2023/09/26 04:23:09;;;;;;;;;;;9.20;99.90;;;;;;7595142;19;20002;-73
2023/09/26 04:25:41;;;;;;;;;;;9.20;99.90;;;;;;7595166;19;19922;-74
2023/09/26 04:28:13;;;;;;;;;;;9.20;99.90;;;;;;7602706;19;20745;-76
2023/09/26 04:30:45;;;;;;;;;;;9.20;99.90;;;;;;7604794;19;19952;-72
2023/09/26 04:33:18;;;;;;;;;;;9.10;99.90;;;;;;7603916;19;19923;-72
2023/09/26 04:35:54;;;;;;;;;;;8.90;99.90;;;;;;7602163;19;19942;-74
2023/09/26 04:38:26;;;;;;;;;;;8.90;99.90;;;;;;7610444;19;20500;-76
2023/09/26 04:41:05;;;;;;;;;;;8.90;99.90;;;;;;7601229;19;19946;-73
2023/09/26 04:43:37;;;;;;;;;;;9.00;99.90;;;;;;7593842;19;19972;-76
2023/09/26 04:46:13;;;;;;;;;;;9.10;99.90;;;;;;7610451;19;19927;-77
2023/09/26 04:48:46;;;;;;;;;;;9.00;99.90;;;;;;7578849;19;19926;-74
2023/09/26 04:51:18;;;;;;;;;;;9.00;99.90;;;;;;7610184;19;19936;-72
2023/09/26 04:53:50;;;;;;;;;;;9.00;99.90;;;;;;7606684;19;20403;-73
2023/09/26 04:56:23;;;;;;;;;;;9.10;99.90;;;;;;7594965;19;20474;-75
2023/09/26 04:58:56;;;;;;;;;;;9.10;99.90;;;;;;7590861;19;19956;-75
2023/09/26 05:01:32;;;;;;;;;;;9.20;99.90;;;;;;7600936;19;19926;-74
2023/09/26 05:04:05;;;;;;;;;;;9.30;99.90;;;;;;7581324;19;20029;-75
2023/09/26 05:06:37;;;;;;;;;;;9.30;99.90;;;;;;7596884;19;20833;-74
2023/09/26 05:09:09;;;;;;;;;;;9.30;99.90;;;;;;7597724;19;19911;-75
2023/09/26 05:11:45;;;;;;;;;;;9.20;99.90;;;;;;7574070;19;19919;-76
2023/09/26 05:14:18;;;;;;;;;;;9.10;99.90;;;;;;7597334;19;19997;-75
2023/09/26 05:16:54;;;;;;;;;;;9.00;99.90;;;;;;7594025;19;19958;-75
2023/09/26 05:19:26;;;;;;;;;;;9.10;99.90;;;;;;7588247;19;20350;-76
2023/09/26 05:21:58;;;;;;;;;;;9.20;99.90;;;;;;7599216;19;20495;-75
2023/09/26 05:24:31;;;;;;;;;;;9.10;99.90;;;;;;7594106;19;19926;-75
2023/09/26 05:27:04;;;;;;;;;;;9.00;99.90;;;;;;7596375;19;20522;-76
2023/09/26 05:29:36;;;;;;;;;;;9.10;99.90;;;;;;7588720;19;20328;-76
2023/09/26 05:32:11;;;;;;;;;;;9.00;99.90;;;;;;7591037;19;19982;-75
2023/09/26 05:34:43;;;;;;;;;;;9.10;99.90;;;;;;7574433;19;19925;-74
2023/09/26 05:37:15;;;;;;;;;;;9.20;99.90;;;;;;7584584;19;19929;-73
2023/09/26 05:39:48;;;;;;;;;;;9.30;99.90;;;;;;7584370;19;19926;-75
2023/09/26 05:42:21;;;;;;;;;;;9.40;99.90;;;;;;7605968;19;19931;-75
2023/09/26 05:44:53;;;;;;;;;;;10.50;99.90;;;;;;7583598;19;19914;-75
2023/09/26 05:47:25;;;;;;;;;;;9.50;99.90;;;;;;7602328;19;19923;-74
2023/09/26 05:49:57;;;;;;;;;;;9.40;99.90;;;;;;7609713;19;19934;-73
2023/09/26 05:52:29;;;;;;;;;;;9.40;99.90;;;;;;7609459;19;19920;-75
2023/09/26 05:55:03;;;;;;;;;;;9.40;99.90;;;;;;7607359;19;19914;-75
2023/09/26 05:57:35;;;;;;;;;;;9.50;99.90;;;;;;7603877;19;19956;-76
2023/09/26 06:00:12;;;;;;;;;;;9.50;99.90;;;;;;7612274;19;19923;-77
2023/09/26 06:02:45;;;;;;;;;;;9.70;99.90;;;;;;7602717;19;21016;-76
2023/09/26 06:05:17;;;;;;;;;;;10.00;99.90;;;;;;7608647;19;19997;-73
2023/09/26 06:07:51;;;;;;;;;;;9.80;99.90;;;;;;7606372;19;19926;-76
2023/09/26 06:10:23;;;;;;;;;;;9.90;99.90;;;;;;7603675;19;19919;-74
2023/09/26 06:12:55;;;;;;;;;;;9.90;99.90;;;;;;7609226;19;19954;-75
2023/09/26 06:15:28;;;;;;;;;;;10.00;99.90;;;;;;7608816;19;19922;-76
2023/09/26 06:18:00;;;;;;;;;;;10.20;99.90;;;;;;7611686;19;19914;-76
2023/09/26 06:20:34;;;;;;;;;;;10.20;99.90;;;;;;7596771;19;19927;-73
2023/09/26 06:23:06;;;;;;;;;;;10.40;99.90;;;;;;7604478;19;19929;-75
2023/09/26 06:25:38;;;;;;;;;;;10.50;99.90;;;;;;7603905;19;19933;-74
2023/09/26 06:28:27;;;;;;;;;;;10.60;99.90;;;;;;7606353;19;19919;-73
2023/09/26 06:31:06;;;;;;;;;;;10.80;99.90;;;;;;7607605;19;20550;-76
2023/09/26 06:33:38;;;;;;;;;;;10.80;99.90;;;;;;7600195;19;19933;-75
2023/09/26 06:36:15;;;;;;;;;;;11.00;99.90;;;;;;7597973;19;19919;-76
2023/09/26 06:38:47;;;;;;;;;;;11.10;99.90;;;;;;7599802;19;21665;-75
2023/09/26 06:41:19;;;;;;;;;;;11.10;99.90;;;;;;7607199;19;19972;-76
2023/09/26 06:43:52;;;;;;;;;;;11.30;99.90;;;;;;7602526;19;19934;-76
2023/09/26 06:46:24;;;;;;;;;;;11.50;99.90;;;;;;7603266;19;20269;-77
2023/09/26 06:48:56;;;;;;;;;;;11.50;99.90;;;;;;7602321;19;19933;-75
2023/09/26 06:51:30;;;;;;;;;;;11.60;99.90;;;;;;7602648;19;19962;-76
2023/09/26 06:54:02;;;;;;;;;;;11.70;99.90;;;;;;7605583;19;20001;-76
2023/09/26 06:56:35;;;;;;;;;;;11.80;99.90;;;;;;7606021;19;19927;-75
2023/09/26 06:59:08;;;;;;;;;;;11.90;99.90;;;;;;7622461;19;19923;-75
2023/09/26 07:01:41;;;;;;;;;;;12.00;99.90;;;;;;7617743;19;20809;-73
2023/09/26 07:04:14;;;;;;;;;;;12.10;99.90;;;;;;7610638;19;19919;-77
2023/09/26 07:06:46;;;;;;;;;;;12.20;99.90;;;;;;7597156;19;20454;-75
2023/09/26 07:09:20;;;;;;;;;;;12.40;99.90;;;;;;7606659;19;19922;-74
2023/09/26 07:11:52;;;;;;;;;;;12.40;99.90;;;;;;7601924;19;19922;-75
2023/09/26 07:14:24;;;;;;;;;;;12.50;99.90;;;;;;7608838;19;19939;-77
2023/09/26 07:16:57;;;;;;;;;;;12.60;99.90;;;;;;7600281;19;20874;-75
2023/09/26 07:19:32;;;;;;;;;;;12.70;99.90;;;;;;7606945;19;20542;-76
2023/09/26 07:22:05;;;;;;;;;;;12.80;99.90;;;;;;7607998;19;19914;-76
2023/09/26 07:24:38;;;;;;;;;;;12.90;99.90;;;;;;7603007;19;19919;-76
2023/09/26 07:27:21;;;;;;;;;;;13.10;99.90;;;;;;7603591;19;20611;-75
2023/09/26 07:29:53;;;;;;;;;;;13.20;99.90;;;;;;7604955;19;19998;-75
2023/09/26 07:32:25;;;;;;;;;;;13.30;99.90;;;;;;7608679;19;19948;-75
2023/09/26 07:34:57;;;;;;;;;;;13.40;99.90;;;;;;7596025;19;20336;-76
2023/09/26 07:37:31;;;;;;;;;;;13.50;99.90;;;;;;7610506;19;20862;-74
2023/09/26 07:40:05;;;;;;;;;;;13.60;99.90;;;;;;7602577;19;22704;-74
2023/09/26 07:42:39;;;;;;;;;;;13.80;99.90;;;;;;7601313;19;19925;-73
2023/09/26 07:45:14;;;;;;;;;;;13.90;99.90;;;;;;7603461;19;19922;-73
2023/09/26 07:47:46;;;;;;;;;;;14.00;99.90;;;;;;7595859;19;19990;-74
2023/09/26 07:50:18;;;;;;;;;;;14.10;99.90;;;;;;7607316;19;19915;-74
2023/09/26 07:52:50;;;;;;;;;;;14.20;99.90;;;;;;7597863;19;20372;-74
2023/09/26 07:55:24;;;;;;;;;;;14.40;99.90;;;;;;7608215;19;19926;-75
2023/09/26 07:57:56;;;;;;;;;;;14.40;99.90;;;;;;7604265;19;19926;-75
2023/09/26 08:00:28;;;;;;;;;;;14.50;99.90;;;;;;7609123;19;19928;-73
2023/09/26 08:03:01;;;;;;;;;;;14.60;99.90;;;;;;7602795;19;19918;-74
2023/09/26 08:05:33;;;;;;;;;;;14.60;99.90;;;;;;7606004;19;20470;-76
2023/09/26 08:08:05;;;;;;;;;;;14.70;99.90;;;;;;7602805;19;19950;-77
2023/09/26 08:10:39;;;;;;;;;;;14.60;99.90;;;;;;7603440;19;20365;-75
2023/09/26 08:13:11;;;;;;;;;;;14.70;99.90;;;;;;7606355;19;20455;-74
2023/09/26 08:15:43;;;;;;;;;;;14.70;99.90;;;;;;7602293;19;19944;-75
2023/09/26 08:18:15;;;;;;;;;;;14.80;99.90;;;;;;7601198;19;19926;-76
2023/09/26 08:20:47;;;;;;;;;;;14.90;99.90;;;;;;7591626;19;20917;-75
2023/09/26 08:23:20;;;;;;;;;;;15.10;99.90;;;;;;7598586;19;20624;-75
2023/09/26 08:26:00;;;;;;;;;;;15.10;99.90;;;;;;7601069;19;19963;-74
2023/09/26 08:28:32;;;;;;;;;;;15.20;99.90;;;;;;7607504;19;19918;-76
2023/09/26 08:31:07;;;;;;;;;;;15.20;99.90;;;;;;7601991;19;19915;-75
2023/09/26 08:33:40;;;;;;;;;;;15.30;99.90;;;;;;7598176;19;20632;-74
2023/09/26 08:36:16;;;;;;;;;;;15.30;99.90;;;;;;7595941;19;19926;-75
2023/09/26 08:38:49;;;;;;;;;;;15.30;99.90;;;;;;7595496;19;19986;-76
2023/09/26 08:41:24;;;;;;;;;;;15.40;99.90;;;;;;7602226;19;19923;-75
2023/09/26 08:43:56;;;;;;;;;;;15.40;99.90;;;;;;7599967;19;19949;-76
2023/09/26 08:46:29;;;;;;;;;;;15.60;99.90;;;;;;7602606;19;20373;-75
2023/09/26 08:49:02;;;;;;;;;;;15.70;99.90;;;;;;7602216;19;19955;-76
2023/09/26 08:51:35;;;;;;;;;;;15.70;99.90;;;;;;7607136;19;20555;-76
2023/09/26 08:54:07;;;;;;;;;;;15.90;99.90;;;;;;7597118;19;19931;-75
2023/09/26 08:56:39;;;;;;;;;;;16.00;99.90;;;;;;7602365;19;19926;-76
2023/09/26 08:59:17;;;;;;;;;;;16.10;99.90;;;;;;7606765;19;19922;-74
2023/09/26 09:01:51;;;;;;;;;;;16.30;99.90;;;;;;7606722;19;20535;-76
2023/09/26 09:04:24;;;;;;;;;;;16.70;99.90;;;;;;7603054;19;19919;-75
2023/09/26 09:07:03;;;;;;;;;;;16.60;99.90;;;;;;7602257;19;19960;-75
2023/09/26 09:09:36;;;;;;;;;;;16.70;99.90;;;;;;7598575;19;19922;-75
2023/09/26 09:12:21;;;;;;;;;;;16.60;99.90;;;;;;7598264;19;19918;-76
2023/09/26 09:14:53;;;;;;;;;;;16.60;99.90;;;;;;7602233;19;20354;-76
2023/09/26 09:17:25;;;;;;;;;;;16.60;99.90;;;;;;7601663;19;19919;-76
2023/09/26 09:19:58;;;;;;;;;;;16.80;99.90;;;;;;7605822;19;19960;-77
2023/09/26 09:22:30;;;;;;;;;;;16.80;99.90;;;;;;7606097;19;19930;-77
2023/09/26 09:25:02;;;;;;;;;;;16.90;99.90;;;;;;7602918;19;20021;-75
2023/09/26 09:27:38;;;;;;;;;;;16.90;99.90;;;;;;7609200;19;19923;-74
2023/09/26 09:30:12;;;;;;;;;;;17.00;99.90;;;;;;7604992;19;19922;-76
2023/09/26 09:32:44;;;;;;;;;;;17.00;99.90;;;;;;7601132;19;19925;-75
2023/09/26 09:35:17;;;;;;;;;;;16.90;99.90;;;;;;7605882;19;19934;-75
2023/09/26 09:37:50;;;;;;;;;;;17.00;99.90;;;;;;7604962;19;19922;-74
2023/09/26 09:40:24;;;;;;;;;;;17.00;99.90;;;;;;7610756;19;20368;-74
2023/09/26 09:42:56;;;;;;;;;;;17.00;99.90;;;;;;7614879;19;19915;-74
2023/09/26 09:45:29;;;;;;;;;;;17.10;99.90;;;;;;7616810;19;19929;-73
2023/09/26 09:48:03;;;;;;;;;;;17.20;99.90;;;;;;7606145;19;19951;-77
2023/09/26 09:50:39;;;;;;;;;;;17.40;99.90;;;;;;7607245;19;19970;-75
2023/09/26 09:53:13;;;;;;;;;;;17.40;99.90;;;;;;7605510;19;20640;-74
2023/09/26 09:55:48;;;;;;;;;;;17.50;99.90;;;;;;7604171;19;19922;-75
2023/09/26 09:58:24;;;;;;;;;;;17.60;99.90;;;;;;7612779;19;19944;-74
2023/09/26 10:00:56;;;;;;;;;;;17.60;99.90;;;;;;7600516;19;20263;-75
2023/09/26 10:03:29;;;;;;;;;;;17.70;99.90;;;;;;7610582;19;19942;-73
2023/09/26 10:06:03;;;;;;;;;;;17.70;99.90;;;;;;7602389;19;19925;-74
2023/09/26 10:08:37;;;;;;;;;;;17.80;99.90;;;;;;7604088;19;19919;-75
2023/09/26 10:11:13;;;;;;;;;;;17.90;99.90;;;;;;7601321;19;19926;-75
2023/09/26 10:13:45;;;;;;;;;;;17.90;99.90;;;;;;7609306;19;19927;-75
2023/09/26 10:16:19;;;;;;;;;;;17.90;99.90;;;;;;7607644;19;19926;-78
2023/09/26 10:18:52;;;;;;;;;;;18.00;99.90;;;;;;7607225;19;19923;-76
2023/09/26 10:21:28;;;;;;;;;;;18.10;99.90;;;;;;7611253;19;19939;-76
2023/09/26 10:24:15;;;;;;;;;;;18.20;99.90;;;;;;7602011;19;19934;-74
2023/09/26 10:26:49;;;;;;;;;;;18.40;99.90;;;;;;7603454;19;19918;-74
2023/09/26 10:29:24;;;;;;;;;;;18.50;99.90;;;;;;7609056;19;19958;-75
2023/09/26 10:31:57;;;;;;;;;;;18.50;99.90;;;;;;7604636;19;19922;-76
2023/09/26 10:34:31;;;;;;;;;;;18.60;99.90;;;;;;7601864;19;19915;-76
2023/09/26 10:37:25;;;;;;;;;;;18.60;99.90;;;;;;7607242;19;19976;-75
2023/09/26 10:39:57;;;;;;;;;;;18.70;99.90;;;;;;7602515;19;19930;-75
2023/09/26 10:42:30;;;;;;;;;;;18.70;99.90;;;;;;7610142;19;19923;-76
2023/09/26 10:45:09;;;;;;;;;;;18.80;99.90;;;;;;7601321;19;20924;-74
2023/09/26 10:47:41;;;;;;;;;;;18.90;99.90;;;;;;7609071;19;19990;-75
2023/09/26 10:50:14;;;;;;;;;;;18.90;99.90;;;;;;7609401;19;20002;-75
2023/09/26 10:52:48;;;;;;;;;;;18.90;99.90;;;;;;7604767;19;20658;-74
2023/09/26 10:55:21;;;;;;;;;;;18.90;99.90;;;;;;7598900;19;19990;-75
2023/09/26 10:57:53;;;;;;;;;;;19.10;99.90;;;;;;7596975;19;19956;-75
2023/09/26 11:00:25;;;;;;;;;;;19.20;99.90;;;;;;7609281;19;19926;-74
2023/09/26 11:02:57;;;;;;;;;;;19.40;99.90;;;;;;7596026;19;19919;-75
2023/09/26 11:05:50;;;;;;;;;;;19.60;99.90;;;;;;7598521;19;20093;-73
2023/09/26 11:08:42;;;;;;;;;;;19.70;99.90;;;;;;7602395;19;19918;-75
2023/09/26 11:11:16;;;;;;;;;;;19.70;99.90;;;;;;7603159;19;19918;-75
2023/09/26 11:13:48;;;;;;;;;;;19.70;99.90;;;;;;7608194;19;19930;-74
2023/09/26 11:16:20;;;;;;;;;;;19.80;99.90;;;;;;7600160;19;20637;-74
2023/09/26 11:18:53;;;;;;;;;;;19.90;99.90;;;;;;7599736;19;19922;-74
2023/09/26 11:21:26;;;;;;;;;;;19.90;99.90;;;;;;7604354;19;20375;-74
2023/09/26 11:24:20;;;;;;;;;;;20.30;99.90;;;;;;7602547;19;19994;-75
2023/09/26 11:26:57;;;;;;;;;;;20.70;99.90;;;;;;7592960;19;20260;-74
2023/09/26 11:29:29;;;;;;;;;;;21.60;99.90;;;;;;7600713;19;19918;-75
2023/09/26 11:32:03;;;;;;;;;;;22.40;99.90;;;;;;7601065;19;20696;-74
2023/09/26 11:34:37;;;;;;;;;;;23.10;99.90;;;;;;7602733;19;19935;-74
2023/09/26 11:37:09;;;;;;;;;;;23.60;99.90;;;;;;7591486;19;20269;-75
2023/09/26 11:39:49;;;;;;;;;;;23.60;99.90;;;;;;7598798;19;21019;-75
2023/09/26 11:42:21;;;;;;;;;;;24.10;99.90;;;;;;7597628;19;19950;-77
2023/09/26 11:44:54;;;;;;;;;;;24.50;99.90;;;;;;7600408;19;19922;-73
2023/09/26 11:47:27;;;;;;;;;;;24.50;99.60;;;;;;7596281;19;19922;-75
2023/09/26 11:50:00;;;;;;;;;;;24.40;98.20;;;;;;7593445;19;19919;-75
2023/09/26 11:52:33;;;;;;;;;;;25.00;98.20;;;;;;7598848;19;19939;-74
2023/09/26 11:55:06;;;;;;;;;;;25.80;97.50;;;;;;7593672;19;20705;-74
2023/09/26 11:57:38;;;;;;;;;;;26.30;95.90;;;;;;7601847;19;19918;-75
2023/09/26 12:00:15;;;;;;;;;;;26.50;94.60;;;;;;7601409;19;19961;-76
2023/09/26 12:02:49;;;;;;;;;;;26.80;94.10;;;;;;7604871;19;20761;-75
2023/09/26 12:05:22;;;;;;;;;;;27.10;92.70;;;;;;7586578;19;19922;-73
2023/09/26 12:07:55;;;;;;;;;;;27.10;91.80;;;;;;7591992;19;20784;-73
2023/09/26 12:10:27;;;;;;;;;;;27.10;90.90;;;;;;7598293;19;19954;-76
2023/09/26 12:13:02;;;;;;;;;;;26.80;91.70;;;;;;7597450;19;19926;-74
2023/09/26 12:15:34;;;;;;;;;;;27.30;91.90;;;;;;7602521;19;20010;-75
2023/09/26 12:18:06;;;;;;;;;;;27.40;89.70;;;;;;7597527;19;19923;-74
2023/09/26 12:20:38;;;;;;;;;;;27.10;90.10;;;;;;7603967;19;19914;-75
2023/09/26 12:23:12;;;;;;;;;;;27.00;90.50;;;;;;7596883;19;20019;-75
2023/09/26 12:25:45;;;;;;;;;;;27.40;88.60;;;;;;7594352;19;19925;-75
2023/09/26 12:28:17;;;;;;;;;;;27.90;87.60;;;;;;7595827;19;19925;-75
2023/09/26 12:30:50;;;;;;;;;;;28.50;86.80;;;;;;7595809;19;19919;-75
2023/09/26 12:33:22;;;;;;;;;;;28.00;85.80;;;;;;7596874;19;19950;-76
2023/09/26 12:35:56;;;;;;;;;;;28.20;86.60;;;;;;7600736;19;19925;-75
2023/09/26 12:38:28;;;;;;;;;;;28.60;85.20;;;;;;7594741;19;19926;-74
2023/09/26 12:41:00;;;;;;;;;;;29.00;83.60;;;;;;7594793;19;20262;-75
2023/09/26 12:43:33;;;;;;;;;;;29.00;83.40;;;;;;7601203;19;19922;-74
2023/09/26 12:46:05;;;;;;;;;;;29.10;83.90;;;;;;7589250;19;20282;-75
2023/09/26 12:48:37;;;;;;;;;;;29.50;81.20;;;;;;7592541;19;19922;-74
2023/09/26 12:51:10;;;;;;;;;;;29.50;80.10;;;;;;7598860;19;19918;-75
2023/09/26 12:53:42;;;;;;;;;;;29.30;79.20;;;;;;7605826;19;19926;-73
2023/09/26 12:56:14;;;;;;;;;;;30.20;76.60;;;;;;7600940;19;19923;-74
2023/09/26 12:58:47;;;;;;;;;;;30.50;74.50;;;;;;7610278;19;19953;-76
2023/09/26 13:01:19;;;;;;;;;;;30.70;74.70;;;;;;7604509;19;19926;-75
2023/09/26 13:03:51;;;;;;;;;;;30.90;73.60;;;;;;7609062;19;19919;-75
2023/09/26 13:06:24;;;;;;;;;;;30.90;72.00;;;;;;7606243;19;20535;-74
2023/09/26 13:08:56;;;;;;;;;;;30.70;71.20;;;;;;7594084;19;20341;-74
2023/09/26 13:11:28;;;;;;;;;;;30.80;72.00;;;;;;7603818;19;19918;-73
2023/09/26 13:14:02;;;;;;;;;;;31.40;70.90;;;;;;7601923;19;19930;-74
2023/09/26 13:16:35;;;;;;;;;;;31.60;71.30;;;;;;7591923;19;19922;-74
2023/09/26 13:19:08;;;;;;;;;;;31.60;69.00;;;;;;7589074;19;20823;-75
2023/09/26 13:21:41;;;;;;;;;;;31.10;68.30;;;;;;7599429;19;19919;-76
2023/09/26 13:24:13;;;;;;;;;;;31.20;69.20;;;;;;7602882;19;20247;-74
2023/09/26 13:26:46;;;;;;;;;;;31.70;69.30;;;;;;7603167;19;19914;-75
2023/09/26 13:29:18;;;;;;;;;;;32.00;68.00;;;;;;7602009;19;19926;-74
2023/09/26 13:31:50;;;;;;;;;;;32.30;66.30;;;;;;7615751;19;19926;-75
2023/09/26 13:34:23;;;;;;;;;;;32.70;65.50;;;;;;7609471;19;19910;-73
2023/09/26 13:36:55;;;;;;;;;;;32.50;66.70;;;;;;7598533;19;20010;-75
2023/09/26 13:39:28;;;;;;;;;;;32.60;65.70;;;;;;7592051;19;19919;-75
2023/09/26 13:42:00;;;;;;;;;;;32.70;65.90;;;;;;7613007;19;19915;-75
2023/09/26 13:44:33;;;;;;;;;;;32.80;65.10;;;;;;7603924;19;20481;-76
2023/09/26 13:47:05;;;;;;;;;;;32.70;66.40;;;;;;7597734;19;19938;-75
2023/09/26 13:49:38;;;;;;;;;;;32.90;65.20;;;;;;7614474;19;20012;-77
2023/09/26 13:52:11;;;;;;;;;;;33.30;64.10;;;;;;7599497;19;19918;-73
2023/09/26 13:54:44;;;;;;;;;;;33.40;62.20;;;;;;7598705;19;20305;-75
2023/09/26 13:57:17;;;;;;;;;;;33.40;63.00;;;;;;7595393;19;19947;-74
2023/09/26 13:59:50;;;;;;;;;;;33.10;63.30;;;;;;7600047;19;19925;-73
2023/09/26 14:02:22;;;;;;;;;;;32.90;63.50;;;;;;7588906;19;19911;-74
2023/09/26 14:04:54;;;;;;;;;;;32.70;63.70;;;;;;7601880;19;20340;-74
2023/09/26 14:07:47;;;;;;;;;;;32.80;63.50;;;;;;7609729;19;19923;-75
2023/09/26 14:10:21;;;;;;;;;;;32.80;63.30;;;;;;7607210;19;19929;-74
2023/09/26 14:12:54;;;;;;;;;;;32.80;64.30;;;;;;7620759;19;19922;-76
2023/09/26 14:15:26;;;;;;;;;;;32.90;65.20;;;;;;7602553;19;19926;-75
2023/09/26 14:17:59;;;;;;;;;;;32.80;63.70;;;;;;7621697;19;20264;-74
2023/09/26 14:20:34;;;;;;;;;;;33.20;63.90;;;;;;7629662;19;19915;-72
2023/09/26 14:23:06;;;;;;;;;;;33.50;63.80;;;;;;7637859;19;20491;-73
2023/09/26 14:25:38;;;;;;;;;;;33.40;63.00;;;;;;7637640;19;20423;-76
2023/09/26 14:28:10;;;;;;;;;;;33.40;62.40;;;;;;7631395;19;19926;-74
2023/09/26 14:30:43;;;;;;;;;;;33.10;62.50;;;;;;7626135;19;19914;-74
2023/09/26 14:33:15;;;;;;;;;;;33.20;62.50;;;;;;7620793;19;19921;-74
2023/09/26 14:35:48;;;;;;;;;;;33.30;62.50;;;;;;7618378;19;21364;-74
2023/09/26 14:38:20;;;;;;;;;;;33.30;62.10;;;;;;7630700;19;19946;-74
2023/09/26 14:40:53;;;;;;;;;;;32.90;62.60;;;;;;7619306;19;19930;-75
2023/09/26 14:43:26;;;;;;;;;;;33.00;63.20;;;;;;7619795;19;20742;-74
2023/09/26 14:45:58;;;;;;;;;;;32.00;63.70;;;;;;7612107;19;20380;-74
2023/09/26 14:48:31;;;;;;;;;;;30.80;65.50;;;;;;7606275;19;19971;-76
2023/09/26 14:51:03;;;;;;;;;;;29.40;68.50;;;;;;7611554;19;20432;-74
2023/09/26 14:53:35;;;;;;;;;;;28.30;70.70;;;;;;7608985;19;19927;-73
2023/09/26 14:56:07;;;;;;;;;;;27.30;73.60;;;;;;7609292;19;19918;-74
2023/09/26 14:58:39;;;;;;;;;;;26.50;75.40;;;;;;7616929;19;19929;-76